sensor_id;sensor_type;location;lat;lon;timestamp;P1;durP1;ratioP1;P2;durP2;ratioP2
27209;SDS011;14721;42.668;23.386;2023-10-08T00:02:01;5.50;;;2.20;;
27209;SDS011;14721;42.668;23.386;2023-10-08T00:04:48;5.97;;;2.57;;
27209;SDS011;14721;42.668;23.386;2023-10-08T00:07:16;6.10;;;2.70;;
27209;SDS011;14721;42.668;23.386;2023-10-08T00:09:48;6.67;;;3.00;;
27209;SDS011;14721;42.668;23.386;2023-10-08T00:12:17;4.83;;;2.30;;
27209;SDS011;14721;42.668;23.386;2023-10-08T00:14:43;6.13;;;2.30;;
27209;SDS011;14721;42.668;23.386;2023-10-08T00:17:14;6.77;;;2.50;;
27209;SDS011;14721;42.668;23.386;2023-10-08T00:19:41;4.93;;;1.97;;
27209;SDS011;14721;42.668;23.386;2023-10-08T00:27:51;6.33;;;2.40;;
27209;SDS011;14721;42.668;23.386;2023-10-08T00:30:36;6.10;;;2.97;;
27209;SDS011;14721;42.668;23.386;2023-10-08T00:33:26;5.83;;;2.27;;
27209;SDS011;14721;42.668;23.386;2023-10-08T00:35:52;6.33;;;2.53;;
27209;SDS011;14721;42.668;23.386;2023-10-08T00:38:18;8.83;;;2.80;;
27209;SDS011;14721;42.668;23.386;2023-10-08T00:41:09;7.93;;;2.40;;
27209;SDS011;14721;42.668;23.386;2023-10-08T00:43:51;7.77;;;2.40;;
27209;SDS011;14721;42.668;23.386;2023-10-08T00:46:17;6.23;;;2.50;;
27209;SDS011;14721;42.668;23.386;2023-10-08T00:48:52;5.33;;;2.67;;
27209;SDS011;14721;42.668;23.386;2023-10-08T00:51:27;8.87;;;3.50;;
27209;SDS011;14721;42.668;23.386;2023-10-08T00:54:05;6.93;;;3.23;;
27209;SDS011;14721;42.668;23.386;2023-10-08T00:56:33;7.60;;;3.80;;
27209;SDS011;14721;42.668;23.386;2023-10-08T00:59:11;6.87;;;3.70;;
27209;SDS011;14721;42.668;23.386;2023-10-08T01:01:39;8.83;;;4.07;;
27209;SDS011;14721;42.668;23.386;2023-10-08T01:04:23;13.13;;;4.03;;
27209;SDS011;14721;42.668;23.386;2023-10-08T01:07:12;9.50;;;3.60;;
27209;SDS011;14721;42.668;23.386;2023-10-08T01:09:53;7.43;;;3.70;;
27209;SDS011;14721;42.668;23.386;2023-10-08T01:12:24;10.70;;;3.97;;
27209;SDS011;14721;42.668;23.386;2023-10-08T01:14:59;6.70;;;3.40;;
27209;SDS011;14721;42.668;23.386;2023-10-08T01:18:04;7.27;;;2.97;;
27209;SDS011;14721;42.668;23.386;2023-10-08T01:20:39;9.27;;;3.30;;
27209;SDS011;14721;42.668;23.386;2023-10-08T01:23:17;10.33;;;3.50;;
27209;SDS011;14721;42.668;23.386;2023-10-08T01:25:46;8.13;;;2.50;;
27209;SDS011;14721;42.668;23.386;2023-10-08T01:28:43;8.93;;;2.70;;
27209;SDS011;14721;42.668;23.386;2023-10-08T01:31:19;7.93;;;2.20;;
27209;SDS011;14721;42.668;23.386;2023-10-08T01:33:44;5.43;;;2.47;;
27209;SDS011;14721;42.668;23.386;2023-10-08T01:36:30;6.63;;;2.13;;
27209;SDS011;14721;42.668;23.386;2023-10-08T01:38:56;5.63;;;2.40;;
27209;SDS011;14721;42.668;23.386;2023-10-08T01:41:25;10.27;;;2.03;;
27209;SDS011;14721;42.668;23.386;2023-10-08T01:43:55;5.57;;;2.40;;
27209;SDS011;14721;42.668;23.386;2023-10-08T01:46:23;7.90;;;3.07;;
27209;SDS011;14721;42.668;23.386;2023-10-08T01:48:52;5.17;;;2.27;;
27209;SDS011;14721;42.668;23.386;2023-10-08T01:51:29;5.30;;;2.07;;
27209;SDS011;14721;42.668;23.386;2023-10-08T01:54:02;3.70;;;2.13;;
27209;SDS011;14721;42.668;23.386;2023-10-08T01:56:29;4.63;;;2.00;;
27209;SDS011;14721;42.668;23.386;2023-10-08T01:58:55;7.20;;;2.40;;
27209;SDS011;14721;42.668;23.386;2023-10-08T02:01:21;4.47;;;1.90;;
27209;SDS011;14721;42.668;23.386;2023-10-08T02:03:46;9.27;;;2.60;;
27209;SDS011;14721;42.668;23.386;2023-10-08T02:06:15;5.33;;;2.70;;
27209;SDS011;14721;42.668;23.386;2023-10-08T02:08:40;7.93;;;2.10;;
27209;SDS011;14721;42.668;23.386;2023-10-08T02:11:07;6.40;;;2.40;;
27209;SDS011;14721;42.668;23.386;2023-10-08T02:13:35;7.67;;;2.40;;
27209;SDS011;14721;42.668;23.386;2023-10-08T02:16:01;5.33;;;2.27;;
27209;SDS011;14721;42.668;23.386;2023-10-08T02:18:27;5.50;;;2.23;;
27209;SDS011;14721;42.668;23.386;2023-10-08T02:20:54;4.73;;;2.57;;
27209;SDS011;14721;42.668;23.386;2023-10-08T02:23:19;6.33;;;2.33;;
27209;SDS011;14721;42.668;23.386;2023-10-08T02:25:45;5.03;;;2.37;;
27209;SDS011;14721;42.668;23.386;2023-10-08T02:28:11;8.97;;;2.03;;
27209;SDS011;14721;42.668;23.386;2023-10-08T02:30:38;6.83;;;2.23;;
27209;SDS011;14721;42.668;23.386;2023-10-08T02:33:04;8.50;;;2.63;;
27209;SDS011;14721;42.668;23.386;2023-10-08T02:35:39;6.13;;;2.77;;
27209;SDS011;14721;42.668;23.386;2023-10-08T02:38:08;6.20;;;2.30;;
27209;SDS011;14721;42.668;23.386;2023-10-08T02:40:36;7.57;;;2.70;;
27209;SDS011;14721;42.668;23.386;2023-10-08T02:43:13;4.77;;;2.23;;
27209;SDS011;14721;42.668;23.386;2023-10-08T02:45:52;9.37;;;2.90;;
27209;SDS011;14721;42.668;23.386;2023-10-08T02:48:38;6.03;;;2.53;;
27209;SDS011;14721;42.668;23.386;2023-10-08T02:51:24;6.90;;;2.63;;
27209;SDS011;14721;42.668;23.386;2023-10-08T02:53:50;6.00;;;2.60;;
27209;SDS011;14721;42.668;23.386;2023-10-08T02:56:15;8.83;;;2.70;;
27209;SDS011;14721;42.668;23.386;2023-10-08T02:58:41;3.53;;;2.23;;
27209;SDS011;14721;42.668;23.386;2023-10-08T03:01:17;8.17;;;2.80;;
27209;SDS011;14721;42.668;23.386;2023-10-08T03:03:43;7.20;;;2.97;;
27209;SDS011;14721;42.668;23.386;2023-10-08T03:06:11;11.43;;;3.10;;
27209;SDS011;14721;42.668;23.386;2023-10-08T03:08:42;7.53;;;2.60;;
27209;SDS011;14721;42.668;23.386;2023-10-08T03:11:12;6.80;;;3.70;;
27209;SDS011;14721;42.668;23.386;2023-10-08T03:13:45;6.87;;;3.27;;
27209;SDS011;14721;42.668;23.386;2023-10-08T03:16:17;6.03;;;3.20;;
27209;SDS011;14721;42.668;23.386;2023-10-08T03:18:46;7.67;;;2.80;;
27209;SDS011;14721;42.668;23.386;2023-10-08T03:21:15;9.07;;;2.93;;
27209;SDS011;14721;42.668;23.386;2023-10-08T03:23:48;4.97;;;2.60;;
27209;SDS011;14721;42.668;23.386;2023-10-08T03:26:23;5.07;;;2.80;;
27209;SDS011;14721;42.668;23.386;2023-10-08T03:29:02;6.97;;;3.07;;
27209;SDS011;14721;42.668;23.386;2023-10-08T03:31:41;8.77;;;3.13;;
27209;SDS011;14721;42.668;23.386;2023-10-08T03:34:33;3.93;;;2.40;;
27209;SDS011;14721;42.668;23.386;2023-10-08T03:36:59;5.40;;;2.60;;
27209;SDS011;14721;42.668;23.386;2023-10-08T03:39:41;4.60;;;2.57;;
27209;SDS011;14721;42.668;23.386;2023-10-08T03:42:22;6.67;;;3.93;;
27209;SDS011;14721;42.668;23.386;2023-10-08T03:44:49;7.73;;;2.87;;
27209;SDS011;14721;42.668;23.386;2023-10-08T03:47:24;6.20;;;3.50;;
27209;SDS011;14721;42.668;23.386;2023-10-08T03:49:51;8.00;;;3.63;;
27209;SDS011;14721;42.668;23.386;2023-10-08T03:52:19;4.97;;;2.63;;
27209;SDS011;14721;42.668;23.386;2023-10-08T03:54:50;5.30;;;3.33;;
27209;SDS011;14721;42.668;23.386;2023-10-08T03:57:36;9.27;;;3.47;;
27209;SDS011;14721;42.668;23.386;2023-10-08T04:00:09;7.70;;;2.57;;
27209;SDS011;14721;42.668;23.386;2023-10-08T04:02:42;8.13;;;3.30;;
27209;SDS011;14721;42.668;23.386;2023-10-08T04:05:12;9.60;;;3.33;;
27209;SDS011;14721;42.668;23.386;2023-10-08T04:07:44;7.63;;;3.23;;
27209;SDS011;14721;42.668;23.386;2023-10-08T04:10:30;7.37;;;3.13;;
27209;SDS011;14721;42.668;23.386;2023-10-08T04:13:02;6.60;;;3.20;;
27209;SDS011;14721;42.668;23.386;2023-10-08T04:15:29;8.47;;;3.23;;
27209;SDS011;14721;42.668;23.386;2023-10-08T04:17:55;7.77;;;3.90;;
27209;SDS011;14721;42.668;23.386;2023-10-08T04:20:21;8.67;;;3.40;;
27209;SDS011;14721;42.668;23.386;2023-10-08T04:23:00;16.63;;;3.63;;
27209;SDS011;14721;42.668;23.386;2023-10-08T04:25:34;9.20;;;3.67;;
27209;SDS011;14721;42.668;23.386;2023-10-08T04:28:01;8.70;;;3.50;;
27209;SDS011;14721;42.668;23.386;2023-10-08T04:30:27;8.93;;;4.83;;
27209;SDS011;14721;42.668;23.386;2023-10-08T04:33:03;10.07;;;4.80;;
27209;SDS011;14721;42.668;23.386;2023-10-08T04:36:46;10.10;;;4.83;;
27209;SDS011;14721;42.668;23.386;2023-10-08T04:39:40;10.53;;;4.93;;
27209;SDS011;14721;42.668;23.386;2023-10-08T04:42:11;16.07;;;5.40;;
27209;SDS011;14721;42.668;23.386;2023-10-08T04:44:39;11.60;;;5.10;;
27209;SDS011;14721;42.668;23.386;2023-10-08T04:47:09;14.53;;;5.23;;
27209;SDS011;14721;42.668;23.386;2023-10-08T04:49:37;18.93;;;8.37;;
27209;SDS011;14721;42.668;23.386;2023-10-08T04:52:18;13.53;;;4.97;;
27209;SDS011;14721;42.668;23.386;2023-10-08T04:57:37;14.90;;;5.10;;
27209;SDS011;14721;42.668;23.386;2023-10-08T05:00:37;11.03;;;5.07;;
27209;SDS011;14721;42.668;23.386;2023-10-08T05:03:27;12.03;;;4.93;;
27209;SDS011;14721;42.668;23.386;2023-10-08T05:06:12;12.77;;;5.70;;
27209;SDS011;14721;42.668;23.386;2023-10-08T05:08:46;11.43;;;5.40;;
27209;SDS011;14721;42.668;23.386;2023-10-08T05:11:23;18.10;;;6.27;;
27209;SDS011;14721;42.668;23.386;2023-10-08T05:14:07;16.87;;;6.80;;
27209;SDS011;14721;42.668;23.386;2023-10-08T05:16:41;15.00;;;5.60;;
27209;SDS011;14721;42.668;23.386;2023-10-08T05:19:25;30.87;;;7.17;;
27209;SDS011;14721;42.668;23.386;2023-10-08T05:22:10;11.57;;;5.47;;
27209;SDS011;14721;42.668;23.386;2023-10-08T05:25:02;15.80;;;5.83;;
27209;SDS011;14721;42.668;23.386;2023-10-08T05:27:41;14.23;;;5.90;;
27209;SDS011;14721;42.668;23.386;2023-10-08T05:30:24;14.63;;;5.30;;
27209;SDS011;14721;42.668;23.386;2023-10-08T05:33:07;10.83;;;5.13;;
27209;SDS011;14721;42.668;23.386;2023-10-08T05:36:15;11.57;;;4.93;;
27209;SDS011;14721;42.668;23.386;2023-10-08T05:42:15;11.63;;;5.33;;
27209;SDS011;14721;42.668;23.386;2023-10-08T05:44:56;13.03;;;5.37;;
27209;SDS011;14721;42.668;23.386;2023-10-08T05:47:34;11.63;;;5.18;;
27209;SDS011;14721;42.668;23.386;2023-10-08T05:50:00;8.07;;;5.15;;
27209;SDS011;14721;42.668;23.386;2023-10-08T05:52:43;10.32;;;4.63;;
27209;SDS011;14721;42.668;23.386;2023-10-08T05:55:18;16.10;;;6.32;;
27209;SDS011;14721;42.668;23.386;2023-10-08T05:57:52;15.63;;;5.60;;
27209;SDS011;14721;42.668;23.386;2023-10-08T06:00:28;13.45;;;4.72;;
27209;SDS011;14721;42.668;23.386;2023-10-08T06:02:59;9.15;;;4.47;;
27209;SDS011;14721;42.668;23.386;2023-10-08T06:05:57;10.32;;;5.50;;
27209;SDS011;14721;42.668;23.386;2023-10-08T06:08:38;8.13;;;3.72;;
27209;SDS011;14721;42.668;23.386;2023-10-08T06:11:22;7.28;;;3.45;;
27209;SDS011;14721;42.668;23.386;2023-10-08T06:14:10;6.75;;;2.85;;
27209;SDS011;14721;42.668;23.386;2023-10-08T06:16:45;19.80;;;3.58;;
27209;SDS011;14721;42.668;23.386;2023-10-08T06:19:12;7.28;;;3.55;;
27209;SDS011;14721;42.668;23.386;2023-10-08T06:21:40;8.35;;;3.80;;
27209;SDS011;14721;42.668;23.386;2023-10-08T06:24:07;10.80;;;4.50;;
27209;SDS011;14721;42.668;23.386;2023-10-08T06:26:36;13.55;;;4.38;;
27209;SDS011;14721;42.668;23.386;2023-10-08T06:29:24;7.55;;;3.88;;
27209;SDS011;14721;42.668;23.386;2023-10-08T06:31:55;10.75;;;3.80;;
27209;SDS011;14721;42.668;23.386;2023-10-08T06:34:22;9.13;;;3.67;;
27209;SDS011;14721;42.668;23.386;2023-10-08T06:36:52;12.52;;;4.60;;
27209;SDS011;14721;42.668;23.386;2023-10-08T06:39:19;6.70;;;4.15;;
27209;SDS011;14721;42.668;23.386;2023-10-08T06:41:51;8.63;;;3.28;;
27209;SDS011;14721;42.668;23.386;2023-10-08T06:44:18;9.50;;;3.80;;
27209;SDS011;14721;42.668;23.386;2023-10-08T06:46:44;7.25;;;4.25;;
27209;SDS011;14721;42.668;23.386;2023-10-08T06:49:10;8.40;;;4.13;;
27209;SDS011;14721;42.668;23.386;2023-10-08T06:51:39;6.18;;;4.13;;
27209;SDS011;14721;42.668;23.386;2023-10-08T06:54:08;12.23;;;4.07;;
27209;SDS011;14721;42.668;23.386;2023-10-08T06:56:41;9.40;;;4.50;;
27209;SDS011;14721;42.668;23.386;2023-10-08T06:59:17;8.18;;;3.90;;
27209;SDS011;14721;42.668;23.386;2023-10-08T07:01:43;8.23;;;4.13;;
27209;SDS011;14721;42.668;23.386;2023-10-08T07:04:11;8.43;;;4.13;;
27209;SDS011;14721;42.668;23.386;2023-10-08T07:06:40;13.18;;;4.75;;
27209;SDS011;14721;42.668;23.386;2023-10-08T07:09:11;9.35;;;4.53;;
27209;SDS011;14721;42.668;23.386;2023-10-08T07:11:55;8.93;;;4.72;;
27209;SDS011;14721;42.668;23.386;2023-10-08T07:14:22;11.05;;;5.05;;
27209;SDS011;14721;42.668;23.386;2023-10-08T07:16:58;10.23;;;4.50;;
27209;SDS011;14721;42.668;23.386;2023-10-08T07:19:28;11.13;;;5.70;;
27209;SDS011;14721;42.668;23.386;2023-10-08T07:22:02;11.95;;;5.55;;
27209;SDS011;14721;42.668;23.386;2023-10-08T07:24:31;12.50;;;5.32;;
27209;SDS011;14721;42.668;23.386;2023-10-08T07:27:01;12.85;;;5.35;;
27209;SDS011;14721;42.668;23.386;2023-10-08T07:29:34;12.88;;;5.00;;
27209;SDS011;14721;42.668;23.386;2023-10-08T07:32:00;9.65;;;5.40;;
27209;SDS011;14721;42.668;23.386;2023-10-08T07:34:35;10.55;;;5.18;;
27209;SDS011;14721;42.668;23.386;2023-10-08T07:37:04;14.20;;;5.47;;
27209;SDS011;14721;42.668;23.386;2023-10-08T07:39:31;12.20;;;5.30;;
27209;SDS011;14721;42.668;23.386;2023-10-08T07:41:56;10.07;;;5.18;;
27209;SDS011;14721;42.668;23.386;2023-10-08T07:44:24;13.50;;;5.85;;
27209;SDS011;14721;42.668;23.386;2023-10-08T07:46:51;11.32;;;5.47;;
27209;SDS011;14721;42.668;23.386;2023-10-08T07:49:20;12.88;;;5.38;;
27209;SDS011;14721;42.668;23.386;2023-10-08T07:51:48;10.43;;;5.65;;
27209;SDS011;14721;42.668;23.386;2023-10-08T07:54:17;13.10;;;4.50;;
27209;SDS011;14721;42.668;23.386;2023-10-08T07:56:48;9.05;;;4.60;;
27209;SDS011;14721;42.668;23.386;2023-10-08T07:59:16;15.05;;;5.30;;
27209;SDS011;14721;42.668;23.386;2023-10-08T08:01:42;10.20;;;5.45;;
27209;SDS011;14721;42.668;23.386;2023-10-08T08:04:11;7.07;;;4.53;;
27209;SDS011;14721;42.668;23.386;2023-10-08T08:06:58;10.10;;;4.88;;
27209;SDS011;14721;42.668;23.386;2023-10-08T08:09:26;9.95;;;4.57;;
27209;SDS011;14721;42.668;23.386;2023-10-08T08:11:52;9.80;;;5.28;;
27209;SDS011;14721;42.668;23.386;2023-10-08T08:14:22;11.43;;;5.03;;
27209;SDS011;14721;42.668;23.386;2023-10-08T08:16:50;15.02;;;5.85;;
27209;SDS011;14721;42.668;23.386;2023-10-08T08:19:16;11.10;;;5.15;;
27209;SDS011;14721;42.668;23.386;2023-10-08T08:21:45;9.57;;;4.45;;
27209;SDS011;14721;42.668;23.386;2023-10-08T08:24:13;15.25;;;8.75;;
27209;SDS011;14721;42.668;23.386;2023-10-08T08:26:50;9.60;;;4.53;;
27209;SDS011;14721;42.668;23.386;2023-10-08T08:29:36;11.65;;;5.00;;
27209;SDS011;14721;42.668;23.386;2023-10-08T08:32:09;14.88;;;5.72;;
27209;SDS011;14721;42.668;23.386;2023-10-08T08:34:40;10.85;;;3.72;;
27209;SDS011;14721;42.668;23.386;2023-10-08T08:37:09;8.65;;;4.03;;
27209;SDS011;14721;42.668;23.386;2023-10-08T08:39:38;13.35;;;3.90;;
27209;SDS011;14721;42.668;23.386;2023-10-08T08:42:06;10.45;;;3.88;;
27209;SDS011;14721;42.668;23.386;2023-10-08T08:44:32;8.13;;;3.58;;
27209;SDS011;14721;42.668;23.386;2023-10-08T08:47:01;13.23;;;4.15;;
27209;SDS011;14721;42.668;23.386;2023-10-08T08:49:29;12.70;;;4.22;;
27209;SDS011;14721;42.668;23.386;2023-10-08T08:51:59;12.55;;;4.25;;
27209;SDS011;14721;42.668;23.386;2023-10-08T08:54:26;11.45;;;5.63;;
27209;SDS011;14721;42.668;23.386;2023-10-08T08:56:55;9.38;;;4.30;;
27209;SDS011;14721;42.668;23.386;2023-10-08T08:59:22;14.05;;;6.25;;
27209;SDS011;14721;42.668;23.386;2023-10-08T09:01:48;8.07;;;3.20;;
27209;SDS011;14721;42.668;23.386;2023-10-08T09:04:16;8.38;;;2.70;;
27209;SDS011;14721;42.668;23.386;2023-10-08T09:06:42;5.70;;;2.42;;
27209;SDS011;14721;42.668;23.386;2023-10-08T09:09:10;12.70;;;3.30;;
27209;SDS011;14721;42.668;23.386;2023-10-08T09:11:50;12.75;;;4.00;;
27209;SDS011;14721;42.668;23.386;2023-10-08T09:14:20;9.90;;;3.47;;
27209;SDS011;14721;42.668;23.386;2023-10-08T09:16:47;8.60;;;3.72;;
27209;SDS011;14721;42.668;23.386;2023-10-08T09:19:12;11.35;;;4.97;;
27209;SDS011;14721;42.668;23.386;2023-10-08T09:21:43;6.03;;;2.30;;
27209;SDS011;14721;42.668;23.386;2023-10-08T09:24:31;6.25;;;2.78;;
27209;SDS011;14721;42.668;23.386;2023-10-08T09:26:59;9.23;;;4.28;;
27209;SDS011;14721;42.668;23.386;2023-10-08T09:29:29;9.13;;;3.03;;
27209;SDS011;14721;42.668;23.386;2023-10-08T09:31:56;8.95;;;3.35;;
27209;SDS011;14721;42.668;23.386;2023-10-08T09:34:31;13.75;;;3.55;;
27209;SDS011;14721;42.668;23.386;2023-10-08T09:36:58;9.98;;;2.50;;
27209;SDS011;14721;42.668;23.386;2023-10-08T09:39:43;6.72;;;2.80;;
27209;SDS011;14721;42.668;23.386;2023-10-08T09:42:11;8.73;;;2.80;;
27209;SDS011;14721;42.668;23.386;2023-10-08T09:44:39;6.85;;;2.28;;
27209;SDS011;14721;42.668;23.386;2023-10-08T09:47:05;6.35;;;2.92;;
27209;SDS011;14721;42.668;23.386;2023-10-08T09:49:33;7.45;;;3.15;;
27209;SDS011;14721;42.668;23.386;2023-10-08T09:52:09;12.45;;;2.95;;
27209;SDS011;14721;42.668;23.386;2023-10-08T09:57:37;13.60;;;3.95;;
27209;SDS011;14721;42.668;23.386;2023-10-08T10:00:07;12.10;;;3.40;;
27209;SDS011;14721;42.668;23.386;2023-10-08T10:02:40;10.18;;;4.00;;
27209;SDS011;14721;42.668;23.386;2023-10-08T10:05:11;7.40;;;2.40;;
27209;SDS011;14721;42.668;23.386;2023-10-08T10:07:37;9.45;;;2.70;;
27209;SDS011;14721;42.668;23.386;2023-10-08T10:10:27;7.50;;;2.72;;
27209;SDS011;14721;42.668;23.386;2023-10-08T10:12:59;5.30;;;2.50;;
27209;SDS011;14721;42.668;23.386;2023-10-08T10:15:24;8.30;;;3.42;;
27209;SDS011;14721;42.668;23.386;2023-10-08T10:17:50;7.38;;;3.22;;
27209;SDS011;14721;42.668;23.386;2023-10-08T10:20:17;5.35;;;2.08;;
27209;SDS011;14721;42.668;23.386;2023-10-08T10:22:45;8.45;;;2.67;;
27209;SDS011;14721;42.668;23.386;2023-10-08T10:25:11;15.35;;;6.25;;
27209;SDS011;14721;42.668;23.386;2023-10-08T10:30:24;7.03;;;2.85;;
27209;SDS011;14721;42.668;23.386;2023-10-08T10:32:53;16.60;;;2.85;;
27209;SDS011;14721;42.668;23.386;2023-10-08T10:35:20;7.88;;;2.45;;
27209;SDS011;14721;42.668;23.386;2023-10-08T10:37:48;8.70;;;2.63;;
27209;SDS011;14721;42.668;23.386;2023-10-08T10:40:20;8.20;;;1.90;;
27209;SDS011;14721;42.668;23.386;2023-10-08T10:42:57;6.18;;;2.22;;
27209;SDS011;14721;42.668;23.386;2023-10-08T10:45:28;6.25;;;3.00;;
27209;SDS011;14721;42.668;23.386;2023-10-08T10:48:22;17.73;;;2.42;;
27209;SDS011;14721;42.668;23.386;2023-10-08T10:50:50;20.17;;;3.85;;
27209;SDS011;14721;42.668;23.386;2023-10-08T10:53:32;9.10;;;2.63;;
27209;SDS011;14721;42.668;23.386;2023-10-08T10:55:59;34.42;;;3.40;;
27209;SDS011;14721;42.668;23.386;2023-10-08T10:58:34;14.00;;;2.67;;
27209;SDS011;14721;42.668;23.386;2023-10-08T11:01:09;5.75;;;2.28;;
27209;SDS011;14721;42.668;23.386;2023-10-08T11:04:01;12.82;;;2.45;;
27209;SDS011;14721;42.668;23.386;2023-10-08T11:06:30;6.07;;;2.22;;
27209;SDS011;14721;42.668;23.386;2023-10-08T11:08:58;7.20;;;2.08;;
27209;SDS011;14721;42.668;23.386;2023-10-08T11:11:27;4.35;;;1.70;;
27209;SDS011;14721;42.668;23.386;2023-10-08T11:13:58;8.57;;;2.92;;
27209;SDS011;14721;42.668;23.386;2023-10-08T11:16:25;7.97;;;2.35;;
27209;SDS011;14721;42.668;23.386;2023-10-08T11:18:52;10.40;;;2.75;;
27209;SDS011;14721;42.668;23.386;2023-10-08T11:21:22;5.35;;;2.20;;
27209;SDS011;14721;42.668;23.386;2023-10-08T11:23:49;5.60;;;2.17;;
27209;SDS011;14721;42.668;23.386;2023-10-08T11:26:18;3.78;;;1.63;;
27209;SDS011;14721;42.668;23.386;2023-10-08T11:28:46;9.98;;;1.80;;
27209;SDS011;14721;42.668;23.386;2023-10-08T11:31:16;9.85;;;3.20;;
27209;SDS011;14721;42.668;23.386;2023-10-08T11:33:46;25.58;;;3.53;;
27209;SDS011;14721;42.668;23.386;2023-10-08T11:36:19;9.35;;;2.38;;
27209;SDS011;14721;42.668;23.386;2023-10-08T11:38:53;10.05;;;2.45;;
27209;SDS011;14721;42.668;23.386;2023-10-08T11:41:34;11.57;;;2.70;;
27209;SDS011;14721;42.668;23.386;2023-10-08T11:44:22;7.60;;;2.25;;
27209;SDS011;14721;42.668;23.386;2023-10-08T11:46:55;7.30;;;2.38;;
27209;SDS011;14721;42.668;23.386;2023-10-08T11:50:01;7.97;;;2.20;;
27209;SDS011;14721;42.668;23.386;2023-10-08T11:53:34;21.52;;;3.17;;
27209;SDS011;14721;42.668;23.386;2023-10-08T12:03:02;5.68;;;2.33;;
27209;SDS011;14721;42.668;23.386;2023-10-08T12:06:09;12.52;;;2.58;;
27209;SDS011;14721;42.668;23.386;2023-10-08T12:17:15;3.28;;;2.00;;
27209;SDS011;14721;42.668;23.386;2023-10-08T13:05:16;9.10;;;1.85;;
27209;SDS011;14721;42.668;23.386;2023-10-08T13:07:56;11.50;;;2.60;;
27209;SDS011;14721;42.668;23.386;2023-10-08T13:10:30;10.30;;;2.28;;
27209;SDS011;14721;42.668;23.386;2023-10-08T13:12:59;7.22;;;2.58;;
27209;SDS011;14721;42.668;23.386;2023-10-08T13:15:39;9.70;;;2.65;;
27209;SDS011;14721;42.668;23.386;2023-10-08T13:25:16;20.90;;;2.90;;
27209;SDS011;14721;42.668;23.386;2023-10-08T13:27:45;7.32;;;2.42;;
27209;SDS011;14721;42.668;23.386;2023-10-08T13:40:30;13.00;;;3.17;;
27209;SDS011;14721;42.668;23.386;2023-10-08T13:43:56;9.30;;;1.88;;
27209;SDS011;14721;42.668;23.386;2023-10-08T13:46:53;6.93;;;2.38;;
27209;SDS011;14721;42.668;23.386;2023-10-08T13:53:11;12.50;;;4.88;;
27209;SDS011;14721;42.668;23.386;2023-10-08T13:55:38;14.02;;;5.18;;
27209;SDS011;14721;42.668;23.386;2023-10-08T13:58:11;14.90;;;5.03;;
27209;SDS011;14721;42.668;23.386;2023-10-08T14:01:11;11.68;;;1.92;;
27209;SDS011;14721;42.668;23.386;2023-10-08T14:17:33;5.45;;;2.78;;
27209;SDS011;14721;42.668;23.386;2023-10-08T14:24:19;6.47;;;1.95;;
27209;SDS011;14721;42.668;23.386;2023-10-08T14:37:31;7.47;;;2.90;;
27209;SDS011;14721;42.668;23.386;2023-10-08T14:40:56;17.27;;;2.80;;
27209;SDS011;14721;42.668;23.386;2023-10-08T14:54:27;6.20;;;1.92;;
27209;SDS011;14721;42.668;23.386;2023-10-08T15:00:49;14.00;;;2.90;;
27209;SDS011;14721;42.668;23.386;2023-10-08T15:03:20;10.55;;;2.78;;
27209;SDS011;14721;42.668;23.386;2023-10-08T15:06:05;11.90;;;2.65;;
27209;SDS011;14721;42.668;23.386;2023-10-08T15:08:32;6.72;;;2.78;;
27209;SDS011;14721;42.668;23.386;2023-10-08T15:14:04;7.00;;;2.25;;
27209;SDS011;14721;42.668;23.386;2023-10-08T15:16:46;11.57;;;2.85;;
27209;SDS011;14721;42.668;23.386;2023-10-08T15:22:47;9.20;;;2.88;;
27209;SDS011;14721;42.668;23.386;2023-10-08T15:25:52;13.30;;;3.10;;
27209;SDS011;14721;42.668;23.386;2023-10-08T15:29:02;13.73;;;2.67;;
27209;SDS011;14721;42.668;23.386;2023-10-08T16:16:56;9.38;;;2.53;;
27209;SDS011;14721;42.668;23.386;2023-10-08T16:27:12;10.37;;;3.30;;
27209;SDS011;14721;42.668;23.386;2023-10-08T16:29:38;7.13;;;2.30;;
27209;SDS011;14721;42.668;23.386;2023-10-08T16:32:03;16.83;;;5.75;;
27209;SDS011;14721;42.668;23.386;2023-10-08T16:34:29;14.93;;;5.60;;
27209;SDS011;14721;42.668;23.386;2023-10-08T16:36:54;9.50;;;3.78;;
27209;SDS011;14721;42.668;23.386;2023-10-08T16:39:20;8.95;;;3.95;;
27209;SDS011;14721;42.668;23.386;2023-10-08T16:41:50;15.00;;;3.70;;
27209;SDS011;14721;42.668;23.386;2023-10-08T16:44:16;19.00;;;6.78;;
27209;SDS011;14721;42.668;23.386;2023-10-08T16:46:51;5.63;;;2.42;;
27209;SDS011;14721;42.668;23.386;2023-10-08T16:49:19;12.48;;;3.08;;
27209;SDS011;14721;42.668;23.386;2023-10-08T16:51:46;10.32;;;3.53;;
27209;SDS011;14721;42.668;23.386;2023-10-08T16:54:12;7.90;;;2.92;;
27209;SDS011;14721;42.668;23.386;2023-10-08T16:56:43;11.07;;;4.40;;
27209;SDS011;14721;42.668;23.386;2023-10-08T16:59:11;13.07;;;5.35;;
27209;SDS011;14721;42.668;23.386;2023-10-08T17:01:39;11.63;;;2.78;;
27209;SDS011;14721;42.668;23.386;2023-10-08T17:04:06;7.57;;;2.35;;
27209;SDS011;14721;42.668;23.386;2023-10-08T17:06:32;7.95;;;3.38;;
27209;SDS011;14721;42.668;23.386;2023-10-08T17:08:58;11.23;;;3.50;;
27209;SDS011;14721;42.668;23.386;2023-10-08T17:11:23;15.02;;;4.70;;
27209;SDS011;14721;42.668;23.386;2023-10-08T17:13:53;12.50;;;3.65;;
27209;SDS011;14721;42.668;23.386;2023-10-08T17:16:36;9.50;;;3.13;;
27209;SDS011;14721;42.668;23.386;2023-10-08T17:19:32;9.77;;;3.85;;
27209;SDS011;14721;42.668;23.386;2023-10-08T17:22:33;7.25;;;2.45;;
27209;SDS011;14721;42.668;23.386;2023-10-08T17:25:06;7.28;;;3.08;;
27209;SDS011;14721;42.668;23.386;2023-10-08T17:27:42;12.10;;;4.55;;
27209;SDS011;14721;42.668;23.386;2023-10-08T17:30:15;10.63;;;3.95;;
27209;SDS011;14721;42.668;23.386;2023-10-08T17:32:47;10.05;;;3.40;;
27209;SDS011;14721;42.668;23.386;2023-10-08T17:35:21;8.32;;;3.25;;
27209;SDS011;14721;42.668;23.386;2023-10-08T17:37:57;7.65;;;2.92;;
27209;SDS011;14721;42.668;23.386;2023-10-08T17:40:41;15.00;;;3.40;;
27209;SDS011;14721;42.668;23.386;2023-10-08T17:43:09;11.75;;;4.03;;
27209;SDS011;14721;42.668;23.386;2023-10-08T17:45:48;16.15;;;5.57;;
27209;SDS011;14721;42.668;23.386;2023-10-08T17:48:17;10.85;;;2.97;;
27209;SDS011;14721;42.668;23.386;2023-10-08T17:50:46;14.25;;;4.90;;
27209;SDS011;14721;42.668;23.386;2023-10-08T17:53:15;13.95;;;5.10;;
27209;SDS011;14721;42.668;23.386;2023-10-08T17:56:14;11.60;;;2.83;;
27209;SDS011;14721;42.668;23.386;2023-10-08T17:58:49;16.98;;;4.57;;
27209;SDS011;14721;42.668;23.386;2023-10-08T18:01:58;15.43;;;3.80;;
27209;SDS011;14721;42.668;23.386;2023-10-08T18:04:31;12.13;;;3.20;;
27209;SDS011;14721;42.668;23.386;2023-10-08T18:07:22;15.95;;;3.30;;
27209;SDS011;14721;42.668;23.386;2023-10-08T18:10:18;13.60;;;4.18;;
27209;SDS011;14721;42.668;23.386;2023-10-08T18:13:04;9.68;;;3.17;;
27209;SDS011;14721;42.668;23.386;2023-10-08T18:15:53;19.05;;;4.57;;
27209;SDS011;14721;42.668;23.386;2023-10-08T18:18:22;13.30;;;3.72;;
27209;SDS011;14721;42.668;23.386;2023-10-08T18:21:11;19.10;;;3.58;;
27209;SDS011;14721;42.668;23.386;2023-10-08T18:23:51;10.25;;;3.30;;
27209;SDS011;14721;42.668;23.386;2023-10-08T18:26:30;17.98;;;3.10;;
27209;SDS011;14721;42.668;23.386;2023-10-08T18:29:28;11.30;;;4.47;;
27209;SDS011;14721;42.668;23.386;2023-10-08T18:31:57;13.50;;;3.75;;
27209;SDS011;14721;42.668;23.386;2023-10-08T18:34:25;14.90;;;2.97;;